< < Back
Terminal Aerodrome Forecast


Current Version              Previous Versions:   1  2  3  4  5  6  7  8  9  

Terminal Aerodrome Forecast

780
FTUS44 KMOB 260241 AAA
TAFPNS
TAF AMD
KPNS 260241Z 2603/2624 10008KT P6SM VCSH FEW022 SCT060 BKN080
     FM260800 14007KT 5SM BR VCSH BKN015
     FM261400 16015G22KT P6SM VCTS SCT025CB BKN035 PROB30 2615/2621
      5SM TSRA BKN025CB=

Latest METAR

999
SAUS70 KWBC 260500 RRE
MTRPNS
METAR KPNS 260453Z AUTO 15010KT 10SM SCT013 SCT017 25/23 A3012 RMK AO2
SLP201 T02500233


USA.gov is the U.S. government's official web portal to all federal, state and local government web resources and services.